createdAt,value
2023-04-25T00:02:16.290Z,6.50
2023-04-25T00:04:43.659Z,6.50
2023-04-25T00:07:13.689Z,6.50
2023-04-25T00:09:40.785Z,6.50
2023-04-25T00:12:07.916Z,6.50
2023-04-25T00:14:35.153Z,6.50
2023-04-25T00:17:02.245Z,6.40
2023-04-25T00:19:29.632Z,6.40
2023-04-25T00:21:56.956Z,6.50
2023-04-25T00:24:24.065Z,6.30
2023-04-25T00:26:50.978Z,6.30
2023-04-25T00:29:17.936Z,6.20
2023-04-25T00:31:45.079Z,6.30
2023-04-25T00:34:11.980Z,6.30
2023-04-25T00:36:39.199Z,6.20
2023-04-25T00:39:06.267Z,6.20
2023-04-25T00:41:34.152Z,6.10
2023-04-25T00:44:03.475Z,6.20
2023-04-25T00:46:31.329Z,6.10
2023-04-25T00:48:58.315Z,6.10
2023-04-25T00:51:27.691Z,6.20
2023-04-25T00:53:55.015Z,6.20
2023-04-25T00:56:22.463Z,6.20
2023-04-25T00:58:51.163Z,6.10
2023-04-25T01:01:18.418Z,6.10
2023-04-25T01:03:48.106Z,6.10
2023-04-25T01:06:15.134Z,6.10
2023-04-25T01:08:42.169Z,6.20
2023-04-25T01:11:09.345Z,6.20
2023-04-25T01:13:36.854Z,6.10
2023-04-25T01:16:04.865Z,6.10
2023-04-25T01:18:31.702Z,6.20
2023-04-25T01:21:04.913Z,6.20
2023-04-25T01:23:34.363Z,6.20
2023-04-25T01:26:04.419Z,6.20
2023-04-25T01:28:31.654Z,6.20
2023-04-25T01:30:59.231Z,6.20
2023-04-25T01:33:26.031Z,6.20
2023-04-25T01:35:53.216Z,6.10
2023-04-25T01:38:20.287Z,6.20
2023-04-25T01:40:50.907Z,6.20
2023-04-25T01:43:18.131Z,6.10
2023-04-25T01:45:45.302Z,6.10
2023-04-25T01:48:14.624Z,6.10
2023-04-25T01:50:42.786Z,6.10
2023-04-25T01:53:11.887Z,6.10
2023-04-25T01:55:39.032Z,6.10
2023-04-25T01:58:14.403Z,6.10
2023-04-25T02:00:41.885Z,6.10
2023-04-25T02:03:09.868Z,6.10
2023-04-25T02:05:38.417Z,6.20
2023-04-25T02:08:10.086Z,6.10
2023-04-25T02:10:37.391Z,6.20
2023-04-25T02:13:06.222Z,6.20
2023-04-25T02:15:33.344Z,6.20
2023-04-25T02:18:01.298Z,6.30
2023-04-25T02:20:29.787Z,6.30
2023-04-25T02:22:56.767Z,6.30
2023-04-25T02:25:23.756Z,6.30
2023-04-25T02:27:51.647Z,6.30
2023-04-25T02:30:18.511Z,6.20
2023-04-25T02:32:45.935Z,6.20
2023-04-25T02:35:13.162Z,6.20
2023-04-25T02:37:41.054Z,6.20
2023-04-25T02:40:09.050Z,6.20
2023-04-25T02:42:36.711Z,6.10
2023-04-25T02:45:04.120Z,6.20
2023-04-25T02:47:31.351Z,6.20
2023-04-25T02:49:58.423Z,6.20
2023-04-25T02:52:25.808Z,6.20
2023-04-25T02:54:52.794Z,6.20
2023-04-25T02:57:19.651Z,6.20
2023-04-25T02:59:46.401Z,6.20
2023-04-25T03:02:13.435Z,6.20
2023-04-25T03:04:40.801Z,6.10
2023-04-25T03:07:07.856Z,6.10
2023-04-25T03:09:34.749Z,6.20
2023-04-25T03:12:02.553Z,6.10
2023-04-25T03:14:29.552Z,6.10
2023-04-25T03:16:56.749Z,6.10
2023-04-25T03:19:23.667Z,6.10
2023-04-25T03:21:50.699Z,6.00
2023-04-25T03:24:17.816Z,6.00
2023-04-25T03:26:44.910Z,6.00
2023-04-25T03:29:11.890Z,6.00
2023-04-25T03:31:38.728Z,6.00
2023-04-25T03:34:05.615Z,5.90
2023-04-25T03:36:34.204Z,5.90
2023-04-25T03:39:00.966Z,5.90
2023-04-25T03:41:27.757Z,5.90
2023-04-25T03:43:55.060Z,6.00
2023-04-25T03:46:22.307Z,5.90
2023-04-25T03:48:49.179Z,6.00
2023-04-25T03:51:16.785Z,5.90
2023-04-25T03:53:43.526Z,6.00
2023-04-25T03:56:10.662Z,5.90
2023-04-25T03:58:37.583Z,5.90
2023-04-25T04:01:08.371Z,5.90
2023-04-25T04:03:37.672Z,5.90
2023-04-25T04:06:06.534Z,5.90
2023-04-25T04:08:34.308Z,5.90
2023-04-25T04:11:01.815Z,5.80
2023-04-25T04:13:29.602Z,5.80
2023-04-25T04:15:56.780Z,5.80
2023-04-25T04:18:23.821Z,5.70
2023-04-25T04:20:50.771Z,5.80
2023-04-25T04:23:18.223Z,5.80
2023-04-25T04:25:45.061Z,5.80
2023-04-25T04:28:12.336Z,5.70
2023-04-25T04:30:40.198Z,5.80
2023-04-25T04:33:08.300Z,5.80
2023-04-25T04:35:35.538Z,5.80
2023-04-25T04:38:02.384Z,5.80
2023-04-25T04:40:29.186Z,5.70
2023-04-25T04:42:57.597Z,5.70
2023-04-25T04:45:24.972Z,5.80
2023-04-25T04:47:52.064Z,5.80
2023-04-25T04:50:19.463Z,5.90
2023-04-25T04:52:46.469Z,5.80
2023-04-25T04:55:13.305Z,5.80
2023-04-25T04:57:40.647Z,5.80
2023-04-25T05:00:14.532Z,5.80
2023-04-25T05:02:41.896Z,5.90
2023-04-25T05:05:09.132Z,5.90
2023-04-25T05:07:36.117Z,5.90
2023-04-25T05:10:03.579Z,5.90
2023-04-25T05:12:31.364Z,5.90
2023-04-25T05:14:58.330Z,5.90
2023-04-25T05:17:25.336Z,6.00
2023-04-25T05:19:52.398Z,6.00
2023-04-25T05:22:19.627Z,5.90
2023-04-25T05:24:47.007Z,5.90
2023-04-25T05:27:13.784Z,6.00
2023-04-25T05:29:40.588Z,6.10
2023-04-25T05:32:08.857Z,6.10
2023-04-25T05:34:35.795Z,6.10
2023-04-25T05:37:02.737Z,6.20
2023-04-25T05:39:30.003Z,6.20
2023-04-25T05:41:56.833Z,6.30
2023-04-25T05:44:23.609Z,6.40
2023-04-25T05:46:51.238Z,6.40
2023-04-25T05:49:19.505Z,6.50
2023-04-25T05:51:46.542Z,6.60
2023-04-25T05:54:13.529Z,6.60
2023-04-25T05:56:40.491Z,6.50
2023-04-25T05:59:07.907Z,6.50
2023-04-25T06:01:35.277Z,6.50
2023-04-25T06:04:02.801Z,6.70
2023-04-25T06:06:30.163Z,6.60
2023-04-25T06:08:57.023Z,6.50
2023-04-25T06:11:23.981Z,6.60
2023-04-25T06:13:51.362Z,6.60
2023-04-25T06:16:18.806Z,6.60
2023-04-25T06:18:46.037Z,6.70
2023-04-25T06:21:13.504Z,6.70
2023-04-25T06:23:40.356Z,6.60
2023-04-25T06:26:07.729Z,6.70
2023-04-25T06:28:34.585Z,7.00
2023-04-25T06:31:01.369Z,7.10
2023-04-25T06:33:28.541Z,7.00
2023-04-25T06:35:55.748Z,7.10
2023-04-25T06:38:22.837Z,7.00
2023-04-25T06:40:49.773Z,6.90
2023-04-25T06:43:16.963Z,6.90
2023-04-25T06:45:45.222Z,6.90
2023-04-25T06:48:13.694Z,6.90
2023-04-25T06:50:40.590Z,7.10
2023-04-25T06:53:07.383Z,7.20
2023-04-25T06:55:35.826Z,7.10
2023-04-25T06:58:02.985Z,7.20
2023-04-25T07:00:29.985Z,7.20
2023-04-25T07:02:57.392Z,7.30
2023-04-25T07:05:24.778Z,7.60
2023-04-25T07:07:51.593Z,7.70
2023-04-25T07:10:18.744Z,7.30
2023-04-25T07:12:45.467Z,7.50
2023-04-25T07:15:12.590Z,7.50
2023-04-25T07:17:39.742Z,7.50
2023-04-25T07:20:07.896Z,7.50
2023-04-25T07:22:35.356Z,7.40
2023-04-25T07:25:03.215Z,7.40
2023-04-25T07:27:29.991Z,7.50
2023-04-25T07:29:57.003Z,7.70
2023-04-25T07:32:24.355Z,7.70
2023-04-25T07:34:52.148Z,7.90
2023-04-25T07:37:20.052Z,8.00
2023-04-25T07:39:48.070Z,8.00
2023-04-25T07:42:14.887Z,8.20
2023-04-25T07:44:43.291Z,8.20
2023-04-25T07:47:11.787Z,7.90
2023-04-25T07:49:39.362Z,7.90
2023-04-25T07:52:09.843Z,7.80
2023-04-25T07:54:37.284Z,7.80
2023-04-25T07:57:10.564Z,8.00
2023-04-25T07:59:37.740Z,8.10
2023-04-25T08:02:05.227Z,8.40
2023-04-25T08:04:32.260Z,8.70
2023-04-25T08:06:59.573Z,8.80
2023-04-25T08:09:26.753Z,9.10
2023-04-25T08:11:54.321Z,9.30
2023-04-25T08:14:21.368Z,9.30
2023-04-25T08:16:48.856Z,9.20
2023-04-25T08:19:15.962Z,9.20
2023-04-25T08:21:43.328Z,9.50
2023-04-25T08:24:10.477Z,9.20
2023-04-25T08:26:38.556Z,9.60
2023-04-25T08:29:06.817Z,9.30
2023-04-25T08:31:33.793Z,9.40
2023-04-25T08:34:00.939Z,9.10
2023-04-25T08:38:59.841Z,8.80
2023-04-25T08:41:28.701Z,9.10
2023-04-25T08:43:58.202Z,9.40
2023-04-25T08:46:26.164Z,9.20
2023-04-25T08:48:57.783Z,9.50
2023-04-25T08:51:27.099Z,9.10
2023-04-25T08:53:57.843Z,9.00
2023-04-25T08:56:29.071Z,9.20
2023-04-25T08:58:56.804Z,9.50
2023-04-25T09:01:23.668Z,8.90
2023-04-25T09:03:51.517Z,9.20
2023-04-25T09:06:20.392Z,9.60
2023-04-25T09:08:47.390Z,9.30
2023-04-25T09:11:15.889Z,9.10
2023-04-25T09:13:43.037Z,8.90
2023-04-25T09:16:10.106Z,8.70
2023-04-25T09:18:37.647Z,8.80
2023-04-25T09:21:13.570Z,8.70
2023-04-25T09:23:42.407Z,8.70
2023-04-25T09:26:10.914Z,9.20
2023-04-25T09:28:39.053Z,9.00
2023-04-25T09:31:06.376Z,8.90
2023-04-25T09:33:36.250Z,8.90
2023-04-25T09:36:05.249Z,9.10
2023-04-25T09:38:41.575Z,9.40
2023-04-25T09:41:09.857Z,9.10
2023-04-25T09:43:37.646Z,9.00
2023-04-25T09:46:11.021Z,9.00
2023-04-25T09:48:38.372Z,8.70
2023-04-25T09:51:11.927Z,8.50
2023-04-25T09:53:41.087Z,8.40
2023-04-25T09:56:11.007Z,8.60
2023-04-25T09:58:39.606Z,9.00
2023-04-25T10:01:08.789Z,9.00
2023-04-25T10:03:43.724Z,9.00
2023-04-25T10:06:19.225Z,8.80
2023-04-25T10:08:52.115Z,8.50
2023-04-25T10:11:19.464Z,8.40
2023-04-25T10:13:47.514Z,8.20
2023-04-25T10:16:14.658Z,8.20
2023-04-25T10:18:41.832Z,7.90
2023-04-25T10:21:09.124Z,7.90
2023-04-25T10:23:37.982Z,8.00
2023-04-25T10:26:05.654Z,8.10
2023-04-25T10:29:00.814Z,8.10
2023-04-25T10:31:28.247Z,8.20
2023-04-25T10:33:55.787Z,8.10
2023-04-25T10:36:24.255Z,8.20
2023-04-25T10:38:52.128Z,8.30
2023-04-25T10:41:20.670Z,8.30
2023-04-25T10:43:49.828Z,8.70
2023-04-25T10:46:22.659Z,9.10
2023-04-25T10:48:53.701Z,9.10
2023-04-25T10:51:39.941Z,9.10
2023-04-25T10:54:09.893Z,9.60
2023-04-25T10:56:45.103Z,10.40
2023-04-25T10:59:13.635Z,11.00
2023-04-25T11:01:45.562Z,11.60
2023-04-25T11:04:33.231Z,11.00
2023-04-25T11:07:07.770Z,9.70
2023-04-25T11:09:36.695Z,9.60
2023-04-25T11:12:03.814Z,9.40
2023-04-25T11:14:30.643Z,8.90
2023-04-25T11:17:01.309Z,8.80
2023-04-25T11:19:29.892Z,8.60
2023-04-25T11:21:58.618Z,8.80
2023-04-25T11:24:33.249Z,8.60
2023-04-25T11:27:00.899Z,8.90
2023-04-25T11:29:28.850Z,9.00
2023-04-25T11:31:59.679Z,9.20
2023-04-25T11:34:27.502Z,9.40
2023-04-25T11:36:55.248Z,9.40
2023-04-25T11:39:22.979Z,9.30
2023-04-25T11:41:51.656Z,9.10
2023-04-25T11:44:20.828Z,8.90
2023-04-25T11:46:48.748Z,8.70
2023-04-25T11:49:16.572Z,8.60
2023-04-25T11:51:44.877Z,8.30
2023-04-25T11:54:12.956Z,8.20
2023-04-25T11:56:44.204Z,7.90
2023-04-25T11:59:11.781Z,7.80
2023-04-25T12:01:42.039Z,7.80
2023-04-25T12:04:20.777Z,7.80
2023-04-25T12:06:50.099Z,8.00
2023-04-25T12:09:25.402Z,8.30
2023-04-25T12:12:00.468Z,8.40
2023-04-25T12:14:30.726Z,8.80
2023-04-25T12:17:00.348Z,8.90
2023-04-25T12:19:32.626Z,9.00
2023-04-25T12:22:01.182Z,8.90
2023-04-25T12:24:29.203Z,8.70
2023-04-25T12:27:05.567Z,8.80
2023-04-25T12:29:46.007Z,8.90
2023-04-25T12:32:16.601Z,8.80
2023-04-25T12:34:44.514Z,8.70
2023-04-25T12:37:11.702Z,8.90
2023-04-25T12:39:38.775Z,9.20
2023-04-25T12:42:08.624Z,9.30
2023-04-25T12:44:36.972Z,9.50
2023-04-25T12:47:04.759Z,9.50
2023-04-25T12:49:31.730Z,9.20
2023-04-25T12:51:59.282Z,9.60
2023-04-25T12:54:26.847Z,9.60
2023-04-25T12:56:53.841Z,10.00
2023-04-25T12:59:21.777Z,10.10
2023-04-25T13:01:49.059Z,10.00
2023-04-25T13:04:17.414Z,9.70
2023-04-25T13:06:44.512Z,10.20
2023-04-25T13:09:13.815Z,10.40
2023-04-25T13:11:42.079Z,10.40
2023-04-25T13:14:08.961Z,10.10
2023-04-25T13:16:36.018Z,10.10
2023-04-25T13:19:04.115Z,9.90
2023-04-25T13:21:34.281Z,9.20
2023-04-25T13:24:01.556Z,7.80
2023-04-25T13:26:28.689Z,7.10
2023-04-25T13:28:55.430Z,6.90
2023-04-25T13:31:22.707Z,6.70
2023-04-25T13:33:50.330Z,6.50
2023-04-25T13:36:17.588Z,6.50
2023-04-25T13:38:46.043Z,6.60
2023-04-25T13:41:18.802Z,6.80
2023-04-25T13:43:48.387Z,6.60
2023-04-25T13:46:30.287Z,7.10
2023-04-25T13:49:11.676Z,7.80
2023-04-25T13:51:39.840Z,8.20
2023-04-25T13:54:07.458Z,8.40
2023-04-25T13:56:34.503Z,8.40
2023-04-25T13:59:02.799Z,8.60
2023-04-25T14:01:32.332Z,8.60
2023-04-25T14:03:59.344Z,8.70
2023-04-25T14:06:26.585Z,8.60
2023-04-25T14:08:53.790Z,8.80
2023-04-25T14:11:21.161Z,8.60
2023-04-25T14:13:49.463Z,8.70
2023-04-25T14:16:17.686Z,8.90
2023-04-25T14:18:45.006Z,9.10
2023-04-25T14:21:12.039Z,9.00
2023-04-25T14:23:39.514Z,9.00
2023-04-25T14:26:07.262Z,9.10
2023-04-25T14:28:34.240Z,9.40
2023-04-25T14:31:01.969Z,9.60
2023-04-25T14:33:29.183Z,9.40
2023-04-25T14:35:57.020Z,9.40
2023-04-25T14:38:26.128Z,9.70
2023-04-25T14:40:53.151Z,9.60
2023-04-25T14:43:19.983Z,9.60
2023-04-25T14:45:47.161Z,9.70
2023-04-25T14:48:14.108Z,9.90
2023-04-25T14:50:40.991Z,10.20
2023-04-25T14:53:07.996Z,10.40
2023-04-25T14:55:34.801Z,10.20
2023-04-25T14:58:02.238Z,9.70
2023-04-25T15:00:29.391Z,9.90
2023-04-25T15:02:57.624Z,10.00
2023-04-25T15:05:24.805Z,9.60
2023-04-25T15:07:52.419Z,9.70
2023-04-25T15:10:19.739Z,9.50
2023-04-25T15:12:49.208Z,9.20
2023-04-25T15:15:25.538Z,9.20
2023-04-25T15:17:56.490Z,9.20
2023-04-25T15:20:26.188Z,8.90
2023-04-25T15:22:53.306Z,8.50
2023-04-25T15:25:20.388Z,8.30
2023-04-25T15:27:49.888Z,8.40
2023-04-25T15:30:17.831Z,8.40
2023-04-25T15:32:45.696Z,8.30
2023-04-25T15:35:12.958Z,8.30
2023-04-25T15:37:41.710Z,8.10
2023-04-25T15:40:13.878Z,8.20
2023-04-25T15:42:43.372Z,8.40
2023-04-25T15:45:11.669Z,8.30
2023-04-25T15:47:39.389Z,8.30
2023-04-25T15:50:08.450Z,8.40
2023-04-25T15:52:36.743Z,8.50
2023-04-25T15:55:07.749Z,8.20
2023-04-25T15:57:36.472Z,8.10
2023-04-25T16:00:10.999Z,8.10
2023-04-25T16:02:42.299Z,8.10
2023-04-25T16:05:11.499Z,8.20
2023-04-25T16:07:39.881Z,8.30
2023-04-25T16:10:07.918Z,8.20
2023-04-25T16:12:35.380Z,8.20
2023-04-25T16:15:02.556Z,8.20
2023-04-25T16:17:30.298Z,8.10
2023-04-25T16:19:58.048Z,8.30
2023-04-25T16:22:25.155Z,8.10
2023-04-25T16:24:53.424Z,8.10
2023-04-25T16:27:20.516Z,7.90
2023-04-25T16:29:49.681Z,7.80
2023-04-25T16:32:16.917Z,7.20
2023-04-25T16:34:44.351Z,6.80
2023-04-25T16:37:11.288Z,6.50
2023-04-25T16:39:38.205Z,6.40
2023-04-25T16:42:06.039Z,6.20
2023-04-25T16:44:32.857Z,6.20
2023-04-25T16:46:59.753Z,6.00
2023-04-25T16:49:27.123Z,5.90
2023-04-25T16:51:54.412Z,6.00
2023-04-25T16:54:21.706Z,6.00
2023-04-25T16:56:48.719Z,6.00
2023-04-25T16:59:15.857Z,6.00
2023-04-25T17:01:43.186Z,6.10
2023-04-25T17:04:10.373Z,6.50
2023-04-25T17:06:37.544Z,6.60
2023-04-25T17:09:06.189Z,6.80
2023-04-25T17:11:33.187Z,6.90
2023-04-25T17:14:00.333Z,6.80
2023-04-25T17:16:36.719Z,6.70
2023-04-25T17:19:07.646Z,6.80
2023-04-25T17:21:34.866Z,6.80
2023-04-25T17:24:02.312Z,6.90
2023-04-25T17:26:29.352Z,6.90
2023-04-25T17:28:56.199Z,7.00
2023-04-25T17:31:24.193Z,7.10
2023-04-25T17:33:51.085Z,7.10
2023-04-25T17:36:18.438Z,7.10
2023-04-25T17:38:45.870Z,7.10
2023-04-25T17:41:14.334Z,7.10
2023-04-25T17:43:41.627Z,7.10
2023-04-25T17:46:08.755Z,7.00
2023-04-25T17:48:35.651Z,6.80
2023-04-25T17:51:02.848Z,6.70
2023-04-25T17:53:29.894Z,6.70
2023-04-25T17:55:56.879Z,6.70
2023-04-25T17:58:24.110Z,6.60
2023-04-25T18:00:51.812Z,6.60
2023-04-25T18:03:18.813Z,6.60
2023-04-25T18:05:46.020Z,6.50
2023-04-25T18:08:14.046Z,6.50
2023-04-25T18:10:41.505Z,6.60
2023-04-25T18:13:09.569Z,6.50
2023-04-25T18:15:36.684Z,6.50
2023-04-25T18:18:15.713Z,6.50
2023-04-25T18:23:15.829Z,6.60
2023-04-25T18:25:45.346Z,6.40
2023-04-25T18:28:12.760Z,6.40
2023-04-25T18:30:40.734Z,6.40
2023-04-25T18:33:10.312Z,6.40
2023-04-25T18:35:40.480Z,6.30
2023-04-25T18:38:15.195Z,6.30
2023-04-25T18:40:58.171Z,6.30
2023-04-25T18:43:33.822Z,6.30
2023-04-25T18:46:01.168Z,6.30
2023-04-25T18:48:28.969Z,6.40
2023-04-25T18:50:57.518Z,6.30
2023-04-25T18:53:24.958Z,6.30
2023-04-25T18:55:54.944Z,6.40
2023-04-25T19:00:52.065Z,6.40
2023-04-25T19:03:19.210Z,6.30
2023-04-25T19:05:46.202Z,6.30
2023-04-25T19:08:13.049Z,6.20
2023-04-25T19:10:40.086Z,6.20
2023-04-25T19:13:07.593Z,6.10
2023-04-25T19:15:34.520Z,6.10
2023-04-25T19:18:01.964Z,6.00
2023-04-25T19:20:28.903Z,6.00
2023-04-25T19:22:55.880Z,5.90
2023-04-25T19:25:25.264Z,5.90
2023-04-25T19:27:52.336Z,5.80
2023-04-25T19:30:19.720Z,5.80
2023-04-25T19:32:46.866Z,5.70
2023-04-25T19:35:14.675Z,5.60
2023-04-25T19:37:46.420Z,5.60
2023-04-25T19:40:18.201Z,5.60
2023-04-25T19:42:45.743Z,5.60
2023-04-25T19:45:12.706Z,5.70
2023-04-25T19:47:39.935Z,5.70
2023-04-25T19:50:08.570Z,5.80
2023-04-25T19:52:36.728Z,5.80
2023-04-25T19:55:05.187Z,5.90
2023-04-25T19:57:37.841Z,5.90
2023-04-25T20:00:12.152Z,5.90
2023-04-25T20:02:39.782Z,5.90
2023-04-25T20:05:08.228Z,5.90
2023-04-25T20:07:36.029Z,5.90
2023-04-25T20:10:04.050Z,5.90
2023-04-25T20:12:31.168Z,5.90
2023-04-25T20:14:58.638Z,5.90
2023-04-25T20:17:25.933Z,5.80
2023-04-25T20:19:53.388Z,5.90
2023-04-25T20:22:20.588Z,5.90
2023-04-25T20:24:47.603Z,5.80
2023-04-25T20:27:14.887Z,5.70
2023-04-25T20:29:42.876Z,5.70
2023-04-25T20:32:10.587Z,5.70
2023-04-25T20:34:37.621Z,5.70
2023-04-25T20:37:04.850Z,5.60
2023-04-25T20:39:33.388Z,5.50
2023-04-25T20:42:00.569Z,5.40
2023-04-25T20:44:27.466Z,5.40
2023-04-25T20:46:54.342Z,5.30
2023-04-25T20:49:21.462Z,5.20
2023-04-25T20:51:48.509Z,5.20
2023-04-25T20:54:15.616Z,5.20
2023-04-25T20:56:42.669Z,5.10
2023-04-25T20:59:09.605Z,5.10
2023-04-25T21:01:36.914Z,5.10
2023-04-25T21:04:04.832Z,5.10
2023-04-25T21:06:33.190Z,5.10
2023-04-25T21:09:00.055Z,5.20
2023-04-25T21:11:28.280Z,5.10
2023-04-25T21:13:55.119Z,5.10
2023-04-25T21:16:22.465Z,5.00
2023-04-25T21:18:49.638Z,5.10
2023-04-25T21:21:16.563Z,4.90
2023-04-25T21:23:43.669Z,4.90
2023-04-25T21:26:10.796Z,4.90
2023-04-25T21:28:37.678Z,4.90
2023-04-25T21:31:04.953Z,4.90
2023-04-25T21:33:32.009Z,4.90
2023-04-25T21:35:58.983Z,4.90
2023-04-25T21:38:26.391Z,4.80
2023-04-25T21:40:53.366Z,4.70
2023-04-25T21:43:20.358Z,4.70
2023-04-25T21:46:14.921Z,4.60
2023-04-25T21:48:34.557Z,4.60
2023-04-25T21:51:01.701Z,4.60
2023-04-25T21:53:28.486Z,4.60
2023-04-25T21:55:55.342Z,4.50
2023-04-25T21:58:22.398Z,4.50
2023-04-25T22:00:49.798Z,4.50
2023-04-25T22:03:17.436Z,4.40
2023-04-25T22:05:44.496Z,4.30
2023-04-25T22:08:11.434Z,4.20
2023-04-25T22:10:39.903Z,4.20
2023-04-25T22:13:06.960Z,4.10
2023-04-25T22:15:35.600Z,4.10
2023-04-25T22:18:04.680Z,4.10
2023-04-25T22:20:32.175Z,4.10
2023-04-25T22:22:59.142Z,4.10
2023-04-25T22:25:26.545Z,4.00
2023-04-25T22:27:53.662Z,4.00
2023-04-25T22:30:21.942Z,4.10
2023-04-25T22:32:48.917Z,4.00
2023-04-25T22:35:15.947Z,4.10
2023-04-25T22:37:42.833Z,4.10
2023-04-25T22:40:10.720Z,3.90
2023-04-25T22:42:39.797Z,4.00
2023-04-25T22:45:11.437Z,3.90
2023-04-25T22:47:39.044Z,3.90
2023-04-25T22:50:08.492Z,3.80
2023-04-25T22:52:35.699Z,3.80
2023-04-25T22:55:05.396Z,3.80
2023-04-25T22:57:32.481Z,3.70
2023-04-25T22:59:59.474Z,3.80
2023-04-25T23:02:27.499Z,3.90
2023-04-25T23:04:55.309Z,3.90
2023-04-25T23:07:22.176Z,3.80
2023-04-25T23:09:49.296Z,4.00
2023-04-25T23:12:21.980Z,3.90
2023-04-25T23:14:52.789Z,4.00
2023-04-25T23:17:20.648Z,3.90
2023-04-25T23:19:48.426Z,3.90
2023-04-25T23:22:15.321Z,3.90
2023-04-25T23:24:42.256Z,3.90
2023-04-25T23:27:09.310Z,3.70
2023-04-25T23:29:36.440Z,3.70
2023-04-25T23:32:03.835Z,3.60
2023-04-25T23:34:31.786Z,3.50
2023-04-25T23:37:04.381Z,3.40
2023-04-25T23:39:31.699Z,3.40
2023-04-25T23:41:58.666Z,3.50
2023-04-25T23:44:25.546Z,3.50
2023-04-25T23:46:52.473Z,3.50
2023-04-25T23:49:19.891Z,3.50
2023-04-25T23:51:46.777Z,3.60
2023-04-25T23:54:13.606Z,3.50
2023-04-25T23:56:40.531Z,3.50
2023-04-25T23:59:07.469Z,3.40
